sensor_id;sensor_type;location;lat;lon;timestamp;pressure;altitude;pressure_sealevel;temperature;humidity
25560;BME280;13450;49.374;8.584;2023-05-09T00:01:17;100766.16;;;14.33;nan
25560;BME280;13450;49.374;8.584;2023-05-09T00:03:42;100760.53;;;14.28;nan
25560;BME280;13450;49.374;8.584;2023-05-09T00:06:08;100757.44;;;14.24;nan
25560;BME280;13450;49.374;8.584;2023-05-09T00:08:34;100757.63;;;14.22;nan
25560;BME280;13450;49.374;8.584;2023-05-09T00:11:00;100751.00;;;14.18;nan
25560;BME280;13450;49.374;8.584;2023-05-09T00:13:26;100746.00;;;14.15;nan
25560;BME280;13450;49.374;8.584;2023-05-09T00:15:52;100735.63;;;14.12;nan
25560;BME280;13450;49.374;8.584;2023-05-09T00:18:19;100732.34;;;14.10;nan
25560;BME280;13450;49.374;8.584;2023-05-09T00:20:44;100738.53;;;14.04;nan
25560;BME280;13450;49.374;8.584;2023-05-09T00:23:09;100742.66;;;13.99;nan
25560;BME280;13450;49.374;8.584;2023-05-09T00:25:34;100738.91;;;14.01;nan
25560;BME280;13450;49.374;8.584;2023-05-09T00:28:00;100743.44;;;13.93;nan
25560;BME280;13450;49.374;8.584;2023-05-09T00:30:25;100749.00;;;13.92;nan
25560;BME280;13450;49.374;8.584;2023-05-09T00:32:50;100747.97;;;13.86;nan
25560;BME280;13450;49.374;8.584;2023-05-09T00:35:15;100747.09;;;13.79;nan
25560;BME280;13450;49.374;8.584;2023-05-09T00:37:41;100736.72;;;13.76;nan
25560;BME280;13450;49.374;8.584;2023-05-09T00:40:06;100733.00;;;13.70;nan
25560;BME280;13450;49.374;8.584;2023-05-09T00:42:33;100730.06;;;13.71;nan
25560;BME280;13450;49.374;8.584;2023-05-09T00:44:59;100723.47;;;13.67;nan
25560;BME280;13450;49.374;8.584;2023-05-09T00:47:28;100728.19;;;13.65;nan
25560;BME280;13450;49.374;8.584;2023-05-09T00:49:55;100725.91;;;13.62;nan
25560;BME280;13450;49.374;8.584;2023-05-09T00:52:24;100730.00;;;13.58;nan
25560;BME280;13450;49.374;8.584;2023-05-09T00:54:51;100730.81;;;13.52;nan
25560;BME280;13450;49.374;8.584;2023-05-09T00:57:17;100732.88;;;13.50;nan
25560;BME280;13450;49.374;8.584;2023-05-09T00:59:42;100731.19;;;13.49;nan
25560;BME280;13450;49.374;8.584;2023-05-09T01:02:08;100722.47;;;13.46;nan
25560;BME280;13450;49.374;8.584;2023-05-09T01:04:33;100726.59;;;13.42;nan
25560;BME280;13450;49.374;8.584;2023-05-09T01:10:06;100728.66;;;13.40;nan
25560;BME280;13450;49.374;8.584;2023-05-09T01:12:33;100722.00;;;13.36;nan
25560;BME280;13450;49.374;8.584;2023-05-09T01:15:30;100717.25;;;13.38;nan
25560;BME280;13450;49.374;8.584;2023-05-09T01:18:02;100715.78;;;13.36;nan
25560;BME280;13450;49.374;8.584;2023-05-09T01:20:52;100712.25;;;13.35;nan
25560;BME280;13450;49.374;8.584;2023-05-09T01:26:04;100708.34;;;13.38;nan
25560;BME280;13450;49.374;8.584;2023-05-09T01:29:00;100706.50;;;13.38;nan
25560;BME280;13450;49.374;8.584;2023-05-09T01:31:32;100696.78;;;13.37;nan
25560;BME280;13450;49.374;8.584;2023-05-09T01:34:01;100704.66;;;13.39;nan
25560;BME280;13450;49.374;8.584;2023-05-09T01:36:29;100692.84;;;13.33;nan
25560;BME280;13450;49.374;8.584;2023-05-09T01:38:56;100686.19;;;13.29;nan
25560;BME280;13450;49.374;8.584;2023-05-09T01:41:28;100697.97;;;13.28;nan
25560;BME280;13450;49.374;8.584;2023-05-09T01:43:55;100701.22;;;13.23;nan
25560;BME280;13450;49.374;8.584;2023-05-09T01:46:24;100695.44;;;13.19;nan
25560;BME280;13450;49.374;8.584;2023-05-09T01:48:52;100691.53;;;13.22;nan
25560;BME280;13450;49.374;8.584;2023-05-09T01:51:19;100694.41;;;13.20;nan
25560;BME280;13450;49.374;8.584;2023-05-09T01:53:49;100698.34;;;13.25;nan
25560;BME280;13450;49.374;8.584;2023-05-09T01:56:17;100688.88;;;13.29;nan
25560;BME280;13450;49.374;8.584;2023-05-09T01:58:43;100692.63;;;13.34;nan
25560;BME280;13450;49.374;8.584;2023-05-09T02:01:17;100692.22;;;13.38;nan
25560;BME280;13450;49.374;8.584;2023-05-09T02:03:44;100683.97;;;13.39;nan
25560;BME280;13450;49.374;8.584;2023-05-09T02:06:10;100688.75;;;13.44;nan
25560;BME280;13450;49.374;8.584;2023-05-09T02:08:36;100680.91;;;13.42;nan
25560;BME280;13450;49.374;8.584;2023-05-09T02:11:02;100683.59;;;13.42;nan
25560;BME280;13450;49.374;8.584;2023-05-09T02:13:30;100670.75;;;13.44;nan
25560;BME280;13450;49.374;8.584;2023-05-09T02:15:56;100669.56;;;13.47;nan
25560;BME280;13450;49.374;8.584;2023-05-09T02:18:21;100680.75;;;13.51;nan
25560;BME280;13450;49.374;8.584;2023-05-09T02:20:49;100677.88;;;13.52;nan
25560;BME280;13450;49.374;8.584;2023-05-09T02:23:16;100682.47;;;13.58;nan
25560;BME280;13450;49.374;8.584;2023-05-09T02:25:41;100687.00;;;13.58;nan
25560;BME280;13450;49.374;8.584;2023-05-09T02:28:08;100691.59;;;13.64;nan
25560;BME280;13450;49.374;8.584;2023-05-09T02:30:39;100682.50;;;13.65;nan
25560;BME280;13450;49.374;8.584;2023-05-09T02:33:06;100680.22;;;13.69;nan
25560;BME280;13450;49.374;8.584;2023-05-09T02:35:36;100667.63;;;13.69;nan
25560;BME280;13450;49.374;8.584;2023-05-09T02:38:04;100680.66;;;13.72;nan
25560;BME280;13450;49.374;8.584;2023-05-09T02:40:30;100681.28;;;13.75;nan
25560;BME280;13450;49.374;8.584;2023-05-09T02:42:57;100676.13;;;13.80;nan
25560;BME280;13450;49.374;8.584;2023-05-09T02:45:23;100674.69;;;13.84;nan
25560;BME280;13450;49.374;8.584;2023-05-09T02:47:50;100676.81;;;13.89;nan
25560;BME280;13450;49.374;8.584;2023-05-09T02:50:16;100665.41;;;13.93;nan
25560;BME280;13450;49.374;8.584;2023-05-09T02:52:42;100668.13;;;14.00;nan
25560;BME280;13450;49.374;8.584;2023-05-09T02:55:10;100664.66;;;14.06;nan
25560;BME280;13450;49.374;8.584;2023-05-09T02:57:37;100664.44;;;14.08;nan
25560;BME280;13450;49.374;8.584;2023-05-09T03:00:03;100659.47;;;14.11;nan
25560;BME280;13450;49.374;8.584;2023-05-09T03:02:33;100661.16;;;14.19;nan
25560;BME280;13450;49.374;8.584;2023-05-09T03:04:59;100658.25;;;14.21;nan
25560;BME280;13450;49.374;8.584;2023-05-09T03:07:25;100648.72;;;14.18;nan
25560;BME280;13450;49.374;8.584;2023-05-09T03:09:50;100662.00;;;14.20;nan
25560;BME280;13450;49.374;8.584;2023-05-09T03:12:16;100661.78;;;14.21;nan
25560;BME280;13450;49.374;8.584;2023-05-09T03:14:41;100658.06;;;14.22;nan
25560;BME280;13450;49.374;8.584;2023-05-09T03:17:06;100648.94;;;14.23;nan
25560;BME280;13450;49.374;8.584;2023-05-09T03:19:32;100654.13;;;14.25;nan
25560;BME280;13450;49.374;8.584;2023-05-09T03:22:00;100648.34;;;14.28;nan
25560;BME280;13450;49.374;8.584;2023-05-09T03:24:26;100652.50;;;14.31;nan
25560;BME280;13450;49.374;8.584;2023-05-09T03:26:52;100643.38;;;14.32;nan
25560;BME280;13450;49.374;8.584;2023-05-09T03:29:17;100643.38;;;14.32;nan
25560;BME280;13450;49.374;8.584;2023-05-09T03:31:43;100641.50;;;14.32;nan
25560;BME280;13450;49.374;8.584;2023-05-09T03:34:08;100634.25;;;14.33;nan
25560;BME280;13450;49.374;8.584;2023-05-09T03:36:42;100632.59;;;14.32;nan
25560;BME280;13450;49.374;8.584;2023-05-09T03:39:07;100631.75;;;14.31;nan
25560;BME280;13450;49.374;8.584;2023-05-09T03:41:34;100639.63;;;14.33;nan
25560;BME280;13450;49.374;8.584;2023-05-09T03:44:01;100640.47;;;14.33;nan
25560;BME280;13450;49.374;8.584;2023-05-09T03:46:26;100631.16;;;14.36;nan
25560;BME280;13450;49.374;8.584;2023-05-09T03:48:52;100635.31;;;14.38;nan
25560;BME280;13450;49.374;8.584;2023-05-09T03:51:17;100633.03;;;14.42;nan
25560;BME280;13450;49.374;8.584;2023-05-09T03:53:45;100629.28;;;14.43;nan
25560;BME280;13450;49.374;8.584;2023-05-09T03:56:14;100628.88;;;14.46;nan
25560;BME280;13450;49.374;8.584;2023-05-09T03:58:41;100627.63;;;14.49;nan
25560;BME280;13450;49.374;8.584;2023-05-09T04:01:07;100626.41;;;14.51;nan
25560;BME280;13450;49.374;8.584;2023-05-09T04:03:32;100613.97;;;14.50;nan
25560;BME280;13450;49.374;8.584;2023-05-09T04:05:58;100621.00;;;14.51;nan
25560;BME280;13450;49.374;8.584;2023-05-09T04:08:23;100632.41;;;14.54;nan
25560;BME280;13450;49.374;8.584;2023-05-09T04:10:52;100634.69;;;14.57;nan
25560;BME280;13450;49.374;8.584;2023-05-09T04:13:17;100622.91;;;14.58;nan
25560;BME280;13450;49.374;8.584;2023-05-09T04:15:42;100632.63;;;14.59;nan
25560;BME280;13450;49.374;8.584;2023-05-09T04:18:07;100630.97;;;14.58;nan
25560;BME280;13450;49.374;8.584;2023-05-09T04:20:34;100626.41;;;14.58;nan
25560;BME280;13450;49.374;8.584;2023-05-09T04:23:00;100628.88;;;14.60;nan
25560;BME280;13450;49.374;8.584;2023-05-09T04:25:25;100634.91;;;14.62;nan
25560;BME280;13450;49.374;8.584;2023-05-09T04:27:50;100627.84;;;14.61;nan
25560;BME280;13450;49.374;8.584;2023-05-09T04:30:16;100631.78;;;14.65;nan
25560;BME280;13450;49.374;8.584;2023-05-09T04:32:42;100632.63;;;14.65;nan
25560;BME280;13450;49.374;8.584;2023-05-09T04:35:10;100631.38;;;14.68;nan
25560;BME280;13450;49.374;8.584;2023-05-09T04:37:36;100637.81;;;14.67;nan
25560;BME280;13450;49.374;8.584;2023-05-09T04:40:02;100633.03;;;14.69;nan
25560;BME280;13450;49.374;8.584;2023-05-09T04:42:29;100635.50;;;14.71;nan
25560;BME280;13450;49.374;8.584;2023-05-09T04:44:57;100635.31;;;14.72;nan
25560;BME280;13450;49.374;8.584;2023-05-09T04:47:22;100627.84;;;14.74;nan
25560;BME280;13450;49.374;8.584;2023-05-09T04:49:48;100633.91;;;14.76;nan
25560;BME280;13450;49.374;8.584;2023-05-09T04:52:13;100628.06;;;14.80;nan
25560;BME280;13450;49.374;8.584;2023-05-09T04:54:38;100626.84;;;14.82;nan
25560;BME280;13450;49.374;8.584;2023-05-09T04:57:04;100629.94;;;14.86;nan
25560;BME280;13450;49.374;8.584;2023-05-09T04:59:31;100630.56;;;14.88;nan
25560;BME280;13450;49.374;8.584;2023-05-09T05:01:56;100629.09;;;14.92;nan
25560;BME280;13450;49.374;8.584;2023-05-09T05:04:22;100622.66;;;14.93;nan
25560;BME280;13450;49.374;8.584;2023-05-09T05:06:47;100617.28;;;14.93;nan
25560;BME280;13450;49.374;8.584;2023-05-09T05:09:12;100623.28;;;14.95;nan
25560;BME280;13450;49.374;8.584;2023-05-09T05:11:40;100614.81;;;14.98;nan
25560;BME280;13450;49.374;8.584;2023-05-09T05:14:05;100615.19;;;15.02;nan
25560;BME280;13450;49.374;8.584;2023-05-09T05:16:30;100617.69;;;15.03;nan
25560;BME280;13450;49.374;8.584;2023-05-09T05:18:56;100612.09;;;15.05;nan
25560;BME280;13450;49.374;8.584;2023-05-09T05:21:21;100616.44;;;15.06;nan
25560;BME280;13450;49.374;8.584;2023-05-09T05:23:46;100609.78;;;15.09;nan
25560;BME280;13450;49.374;8.584;2023-05-09T05:26:14;100609.78;;;15.09;nan
25560;BME280;13450;49.374;8.584;2023-05-09T05:28:39;100611.84;;;15.13;nan
25560;BME280;13450;49.374;8.584;2023-05-09T05:31:05;100606.03;;;15.16;nan
25560;BME280;13450;49.374;8.584;2023-05-09T05:33:30;100608.91;;;15.22;nan
25560;BME280;13450;49.374;8.584;2023-05-09T05:35:57;100605.59;;;15.26;nan
25560;BME280;13450;49.374;8.584;2023-05-09T05:38:23;100601.44;;;15.30;nan
25560;BME280;13450;49.374;8.584;2023-05-09T05:40:48;100589.00;;;15.36;nan
25560;BME280;13450;49.374;8.584;2023-05-09T05:43:13;100589.97;;;15.42;nan
25560;BME280;13450;49.374;8.584;2023-05-09T05:45:38;100597.22;;;15.48;nan
25560;BME280;13450;49.374;8.584;2023-05-09T05:48:04;100604.63;;;15.60;nan
25560;BME280;13450;49.374;8.584;2023-05-09T05:50:29;100602.13;;;15.65;nan
25560;BME280;13450;49.374;8.584;2023-05-09T05:52:55;100590.50;;;15.71;nan
25560;BME280;13450;49.374;8.584;2023-05-09T05:55:20;100587.53;;;15.79;nan
25560;BME280;13450;49.374;8.584;2023-05-09T05:57:45;100589.94;;;15.88;nan
25560;BME280;13450;49.374;8.584;2023-05-09T06:00:12;100594.53;;;15.94;nan
25560;BME280;13450;49.374;8.584;2023-05-09T06:02:42;100593.06;;;15.98;nan
25560;BME280;13450;49.374;8.584;2023-05-09T06:05:09;100593.81;;;16.05;nan
25560;BME280;13450;49.374;8.584;2023-05-09T06:07:34;100594.41;;;16.14;nan
25560;BME280;13450;49.374;8.584;2023-05-09T06:09:59;100584.88;;;16.12;nan
25560;BME280;13450;49.374;8.584;2023-05-09T06:12:25;100586.09;;;16.16;nan
25560;BME280;13450;49.374;8.584;2023-05-09T06:14:50;100580.69;;;16.16;nan
25560;BME280;13450;49.374;8.584;2023-05-09T06:17:15;100574.44;;;16.15;nan
25560;BME280;13450;49.374;8.584;2023-05-09T06:19:41;100580.22;;;16.19;nan
25560;BME280;13450;49.374;8.584;2023-05-09T06:22:06;100588.50;;;16.24;nan
25560;BME280;13450;49.374;8.584;2023-05-09T06:24:31;100582.66;;;16.27;nan
25560;BME280;13450;49.374;8.584;2023-05-09T06:26:57;100575.19;;;16.29;nan
25560;BME280;13450;49.374;8.584;2023-05-09T06:29:22;100582.19;;;16.37;nan
25560;BME280;13450;49.374;8.584;2023-05-09T06:31:47;100569.91;;;16.41;nan
25560;BME280;13450;49.374;8.584;2023-05-09T06:34:13;100571.06;;;16.52;nan
25560;BME280;13450;49.374;8.584;2023-05-09T06:36:38;100568.59;;;16.69;nan
25560;BME280;13450;49.374;8.584;2023-05-09T06:39:06;100569.53;;;16.82;nan
25560;BME280;13450;49.374;8.584;2023-05-09T06:41:31;100561.84;;;16.97;nan
25560;BME280;13450;49.374;8.584;2023-05-09T06:43:56;100570.75;;;17.05;nan
25560;BME280;13450;49.374;8.584;2023-05-09T06:46:22;100569.78;;;17.18;nan
25560;BME280;13450;49.374;8.584;2023-05-09T06:48:47;100580.91;;;17.28;nan
25560;BME280;13450;49.374;8.584;2023-05-09T06:51:12;100564.50;;;17.23;nan
25560;BME280;13450;49.374;8.584;2023-05-09T06:53:38;100561.34;;;17.26;nan
25560;BME280;13450;49.374;8.584;2023-05-09T06:56:03;100549.69;;;17.44;nan
25560;BME280;13450;49.374;8.584;2023-05-09T06:58:29;100557.16;;;17.61;nan
25560;BME280;13450;49.374;8.584;2023-05-09T07:00:55;100546.09;;;17.62;nan
25560;BME280;13450;49.374;8.584;2023-05-09T07:03:20;100546.91;;;17.51;nan
25560;BME280;13450;49.374;8.584;2023-05-09T07:05:50;100537.16;;;17.31;nan
25560;BME280;13450;49.374;8.584;2023-05-09T07:08:16;100540.66;;;17.20;nan
25560;BME280;13450;49.374;8.584;2023-05-09T07:10:41;100547.47;;;17.04;nan
25560;BME280;13450;49.374;8.584;2023-05-09T07:13:09;100541.66;;;17.00;nan
25560;BME280;13450;49.374;8.584;2023-05-09T07:15:34;100544.00;;;16.96;nan
25560;BME280;13450;49.374;8.584;2023-05-09T07:18:00;100543.84;;;16.91;nan
25560;BME280;13450;49.374;8.584;2023-05-09T07:20:25;100541.22;;;16.84;nan
25560;BME280;13450;49.374;8.584;2023-05-09T07:22:50;100524.63;;;16.81;nan
25560;BME280;13450;49.374;8.584;2023-05-09T07:25:16;100530.47;;;16.78;nan
25560;BME280;13450;49.374;8.584;2023-05-09T07:27:44;100512.84;;;16.75;nan
25560;BME280;13450;49.374;8.584;2023-05-09T07:30:12;100520.25;;;16.80;nan
25560;BME280;13450;49.374;8.584;2023-05-09T07:32:37;100518.69;;;16.91;nan
25560;BME280;13450;49.374;8.584;2023-05-09T07:35:03;100517.34;;;17.00;nan
25560;BME280;13450;49.374;8.584;2023-05-09T07:37:28;100513.78;;;17.06;nan
25560;BME280;13450;49.374;8.584;2023-05-09T07:39:54;100518.16;;;17.00;nan
25560;BME280;13450;49.374;8.584;2023-05-09T07:42:20;100513.44;;;16.96;nan
25560;BME280;13450;49.374;8.584;2023-05-09T07:44:46;100504.28;;;16.97;nan
25560;BME280;13450;49.374;8.584;2023-05-09T07:47:14;100503.38;;;17.03;nan
25560;BME280;13450;49.374;8.584;2023-05-09T07:49:40;100497.91;;;17.10;nan
25560;BME280;13450;49.374;8.584;2023-05-09T07:52:08;100490.31;;;17.19;nan
25560;BME280;13450;49.374;8.584;2023-05-09T07:54:33;100491.19;;;17.31;nan
25560;BME280;13450;49.374;8.584;2023-05-09T07:57:01;100485.13;;;17.48;nan
25560;BME280;13450;49.374;8.584;2023-05-09T07:59:29;100486.25;;;17.59;nan
25560;BME280;13450;49.374;8.584;2023-05-09T08:01:57;100482.13;;;17.68;nan
25560;BME280;13450;49.374;8.584;2023-05-09T08:04:22;100480.63;;;17.84;nan
25560;BME280;13450;49.374;8.584;2023-05-09T08:06:48;100473.81;;;17.94;nan
25560;BME280;13450;49.374;8.584;2023-05-09T08:09:13;100474.56;;;18.01;nan
25560;BME280;13450;49.374;8.584;2023-05-09T08:11:39;100474.25;;;18.09;nan
25560;BME280;13450;49.374;8.584;2023-05-09T08:14:04;100459.28;;;18.19;nan
25560;BME280;13450;49.374;8.584;2023-05-09T08:16:30;100456.53;;;18.54;nan
25560;BME280;13450;49.374;8.584;2023-05-09T08:18:55;100450.25;;;18.78;nan
25560;BME280;13450;49.374;8.584;2023-05-09T08:21:21;100448.31;;;18.90;nan
25560;BME280;13450;49.374;8.584;2023-05-09T08:23:48;100452.94;;;18.90;nan
25560;BME280;13450;49.374;8.584;2023-05-09T08:26:14;100454.69;;;18.84;nan
25560;BME280;13450;49.374;8.584;2023-05-09T08:28:39;100449.50;;;18.82;nan
25560;BME280;13450;49.374;8.584;2023-05-09T08:31:05;100457.50;;;18.89;nan
25560;BME280;13450;49.374;8.584;2023-05-09T08:33:30;100447.16;;;18.86;nan
25560;BME280;13450;49.374;8.584;2023-05-09T08:35:56;100449.47;;;18.94;nan
25560;BME280;13450;49.374;8.584;2023-05-09T08:38:21;100448.81;;;18.87;nan
25560;BME280;13450;49.374;8.584;2023-05-09T08:40:46;100441.75;;;18.86;nan
25560;BME280;13450;49.374;8.584;2023-05-09T08:43:15;100436.66;;;18.90;nan
25560;BME280;13450;49.374;8.584;2023-05-09T08:46:04;100430.16;;;18.91;nan
25560;BME280;13450;49.374;8.584;2023-05-09T08:48:34;100424.25;;;19.06;nan
25560;BME280;13450;49.374;8.584;2023-05-09T08:51:04;100432.94;;;19.08;nan
25560;BME280;13450;49.374;8.584;2023-05-09T08:53:30;100431.66;;;18.99;nan
25560;BME280;13450;49.374;8.584;2023-05-09T08:55:57;100426.63;;;18.90;nan
25560;BME280;13450;49.374;8.584;2023-05-09T08:58:23;100428.91;;;18.81;nan
25560;BME280;13450;49.374;8.584;2023-05-09T09:00:48;100426.34;;;18.75;nan
25560;BME280;13450;49.374;8.584;2023-05-09T09:03:15;100427.88;;;18.71;nan
25560;BME280;13450;49.374;8.584;2023-05-09T09:05:41;100425.63;;;18.67;nan
25560;BME280;13450;49.374;8.584;2023-05-09T09:08:08;100420.81;;;18.69;nan
25560;BME280;13450;49.374;8.584;2023-05-09T09:10:39;100413.81;;;18.86;nan
25560;BME280;13450;49.374;8.584;2023-05-09T09:13:12;100419.28;;;19.03;nan
25560;BME280;13450;49.374;8.584;2023-05-09T09:15:39;100401.78;;;19.23;nan
25560;BME280;13450;49.374;8.584;2023-05-09T09:18:07;100404.66;;;19.33;nan
25560;BME280;13450;49.374;8.584;2023-05-09T09:20:36;100399.41;;;19.43;nan
25560;BME280;13450;49.374;8.584;2023-05-09T09:23:07;100397.84;;;19.47;nan
25560;BME280;13450;49.374;8.584;2023-05-09T09:25:34;100389.63;;;19.59;nan
25560;BME280;13450;49.374;8.584;2023-05-09T09:28:00;100379.09;;;19.80;nan
25560;BME280;13450;49.374;8.584;2023-05-09T09:30:25;100377.41;;;20.13;nan
25560;BME280;13450;49.374;8.584;2023-05-09T09:32:51;100381.78;;;20.37;nan
25560;BME280;13450;49.374;8.584;2023-05-09T09:35:16;100380.34;;;20.51;nan
25560;BME280;13450;49.374;8.584;2023-05-09T09:37:42;100372.19;;;20.51;nan
25560;BME280;13450;49.374;8.584;2023-05-09T09:40:09;100373.19;;;20.45;nan
25560;BME280;13450;49.374;8.584;2023-05-09T09:42:46;100372.41;;;20.72;nan
25560;BME280;13450;49.374;8.584;2023-05-09T09:45:14;100358.38;;;20.81;nan
25560;BME280;13450;49.374;8.584;2023-05-09T09:47:41;100363.94;;;20.91;nan
25560;BME280;13450;49.374;8.584;2023-05-09T09:50:18;100356.66;;;20.97;nan
25560;BME280;13450;49.374;8.584;2023-05-09T09:52:51;100352.66;;;21.04;nan
25560;BME280;13450;49.374;8.584;2023-05-09T09:55:17;100358.19;;;21.15;nan
25560;BME280;13450;49.374;8.584;2023-05-09T09:57:45;100350.03;;;21.53;nan
25560;BME280;13450;49.374;8.584;2023-05-09T10:00:12;100354.97;;;21.94;nan
25560;BME280;13450;49.374;8.584;2023-05-09T10:02:49;100342.22;;;22.00;nan
25560;BME280;13450;49.374;8.584;2023-05-09T10:05:23;100339.50;;;22.05;nan
25560;BME280;13450;49.374;8.584;2023-05-09T10:07:50;100335.50;;;22.28;nan
25560;BME280;13450;49.374;8.584;2023-05-09T10:10:19;100332.31;;;22.47;nan
25560;BME280;13450;49.374;8.584;2023-05-09T10:12:46;100324.31;;;22.14;nan
25560;BME280;13450;49.374;8.584;2023-05-09T10:15:15;100318.53;;;22.11;nan
25560;BME280;13450;49.374;8.584;2023-05-09T10:17:44;100320.28;;;22.38;nan
25560;BME280;13450;49.374;8.584;2023-05-09T10:20:11;100317.59;;;22.53;nan
25560;BME280;13450;49.374;8.584;2023-05-09T10:22:38;100307.84;;;22.57;nan
25560;BME280;13450;49.374;8.584;2023-05-09T10:25:07;100301.88;;;22.76;nan
25560;BME280;13450;49.374;8.584;2023-05-09T10:27:40;100293.69;;;22.92;nan
25560;BME280;13450;49.374;8.584;2023-05-09T10:30:07;100297.25;;;22.97;nan
25560;BME280;13450;49.374;8.584;2023-05-09T10:32:37;100292.63;;;22.93;nan
25560;BME280;13450;49.374;8.584;2023-05-09T10:35:10;100280.09;;;22.97;nan
25560;BME280;13450;49.374;8.584;2023-05-09T10:37:38;100278.97;;;22.98;nan
25560;BME280;13450;49.374;8.584;2023-05-09T10:40:04;100273.53;;;22.93;nan
25560;BME280;13450;49.374;8.584;2023-05-09T10:42:30;100255.78;;;23.06;nan
25560;BME280;13450;49.374;8.584;2023-05-09T10:44:56;100251.41;;;23.20;nan
25560;BME280;13450;49.374;8.584;2023-05-09T10:47:24;100244.03;;;23.26;nan
25560;BME280;13450;49.374;8.584;2023-05-09T10:49:51;100244.59;;;23.38;nan
25560;BME280;13450;49.374;8.584;2023-05-09T10:52:16;100245.13;;;23.51;nan
25560;BME280;13450;49.374;8.584;2023-05-09T10:54:45;100244.59;;;23.28;nan
25560;BME280;13450;49.374;8.584;2023-05-09T10:57:21;100232.59;;;23.08;nan
25560;BME280;13450;49.374;8.584;2023-05-09T10:59:50;100242.41;;;23.25;nan
25560;BME280;13450;49.374;8.584;2023-05-09T11:02:18;100222.78;;;22.81;nan
25560;BME280;13450;49.374;8.584;2023-05-09T11:04:44;100224.97;;;22.58;nan
25560;BME280;13450;49.374;8.584;2023-05-09T11:07:26;100220.88;;;22.71;nan
25560;BME280;13450;49.374;8.584;2023-05-09T11:09:52;100217.06;;;22.57;nan
25560;BME280;13450;49.374;8.584;2023-05-09T11:12:31;100211.81;;;22.34;nan
25560;BME280;13450;49.374;8.584;2023-05-09T11:15:03;100210.41;;;22.21;nan
25560;BME280;13450;49.374;8.584;2023-05-09T11:17:31;100200.06;;;22.13;nan
25560;BME280;13450;49.374;8.584;2023-05-09T11:20:02;100199.53;;;22.21;nan
25560;BME280;13450;49.374;8.584;2023-05-09T12:26:21;100097.94;;;22.57;nan
25560;BME280;13450;49.374;8.584;2023-05-09T12:28:50;100081.03;;;22.60;nan
25560;BME280;13450;49.374;8.584;2023-05-09T12:31:16;100079.66;;;22.63;nan
25560;BME280;13450;49.374;8.584;2023-05-09T12:33:41;100084.84;;;22.54;nan
25560;BME280;13450;49.374;8.584;2023-05-09T12:36:08;100078.84;;;22.52;nan
25560;BME280;13450;49.374;8.584;2023-05-09T12:38:35;100080.47;;;22.43;nan
25560;BME280;13450;49.374;8.584;2023-05-09T12:41:05;100064.09;;;22.69;nan
25560;BME280;13450;49.374;8.584;2023-05-09T12:43:35;100059.94;;;22.97;nan
25560;BME280;13450;49.374;8.584;2023-05-09T12:46:01;100053.09;;;23.10;nan
25560;BME280;13450;49.374;8.584;2023-05-09T12:48:28;100049.66;;;23.45;nan
25560;BME280;13450;49.374;8.584;2023-05-09T12:50:54;100042.59;;;23.44;nan
25560;BME280;13450;49.374;8.584;2023-05-09T12:53:28;100041.75;;;23.43;nan
25560;BME280;13450;49.374;8.584;2023-05-09T12:58:36;100051.31;;;24.26;nan
25560;BME280;13450;49.374;8.584;2023-05-09T13:01:05;100049.16;;;25.26;nan
25560;BME280;13450;49.374;8.584;2023-05-09T13:03:31;100038.41;;;25.54;nan
25560;BME280;13450;49.374;8.584;2023-05-09T13:06:03;100042.00;;;26.40;nan
25560;BME280;13450;49.374;8.584;2023-05-09T13:08:30;100043.56;;;27.02;nan
25560;BME280;13450;49.374;8.584;2023-05-09T13:10:57;100045.22;;;27.54;nan
25560;BME280;13450;49.374;8.584;2023-05-09T13:13:25;100042.25;;;27.14;nan
25560;BME280;13450;49.374;8.584;2023-05-09T13:15:53;100027.09;;;26.74;nan
25560;BME280;13450;49.374;8.584;2023-05-09T13:18:18;100028.34;;;25.88;nan
25560;BME280;13450;49.374;8.584;2023-05-09T13:20:45;100019.22;;;25.73;nan
25560;BME280;13450;49.374;8.584;2023-05-09T13:23:10;100023.38;;;25.70;nan
25560;BME280;13450;49.374;8.584;2023-05-09T13:25:35;100018.41;;;25.34;nan
25560;BME280;13450;49.374;8.584;2023-05-09T13:28:01;100012.16;;;25.09;nan
25560;BME280;13450;49.374;8.584;2023-05-09T13:30:28;99999.63;;;24.54;nan
25560;BME280;13450;49.374;8.584;2023-05-09T13:32:53;99992.25;;;24.30;nan
25560;BME280;13450;49.374;8.584;2023-05-09T13:35:18;99988.00;;;24.13;nan
25560;BME280;13450;49.374;8.584;2023-05-09T13:37:44;99990.97;;;23.87;nan
25560;BME280;13450;49.374;8.584;2023-05-09T13:40:09;99982.88;;;23.72;nan
25560;BME280;13450;49.374;8.584;2023-05-09T13:42:35;99979.63;;;23.70;nan
25560;BME280;13450;49.374;8.584;2023-05-09T13:45:01;99984.38;;;23.88;nan
25560;BME280;13450;49.374;8.584;2023-05-09T13:47:26;99978.06;;;23.93;nan
25560;BME280;13450;49.374;8.584;2023-05-09T13:49:54;99974.31;;;23.84;nan
25560;BME280;13450;49.374;8.584;2023-05-09T13:52:19;99966.50;;;23.72;nan
25560;BME280;13450;49.374;8.584;2023-05-09T13:54:44;99958.03;;;23.73;nan
25560;BME280;13450;49.374;8.584;2023-05-09T13:57:12;99956.63;;;23.76;nan
25560;BME280;13450;49.374;8.584;2023-05-09T13:59:38;99959.66;;;24.04;nan
25560;BME280;13450;49.374;8.584;2023-05-09T14:02:06;99960.59;;;24.24;nan
25560;BME280;13450;49.374;8.584;2023-05-09T14:04:31;99949.50;;;24.39;nan
25560;BME280;13450;49.374;8.584;2023-05-09T14:06:57;99945.63;;;24.46;nan
25560;BME280;13450;49.374;8.584;2023-05-09T14:09:23;99950.66;;;24.33;nan
25560;BME280;13450;49.374;8.584;2023-05-09T14:11:49;99941.88;;;24.12;nan
25560;BME280;13450;49.374;8.584;2023-05-09T14:14:18;99938.25;;;24.16;nan
25560;BME280;13450;49.374;8.584;2023-05-09T14:16:44;99934.41;;;24.17;nan
25560;BME280;13450;49.374;8.584;2023-05-09T14:19:10;99928.38;;;24.21;nan
25560;BME280;13450;49.374;8.584;2023-05-09T14:21:35;99926.41;;;23.97;nan
25560;BME280;13450;49.374;8.584;2023-05-09T14:24:01;99931.25;;;23.75;nan